sensor_id;sensor_type;location;lat;lon;timestamp;temperature;humidity
37446;DHT22;23307;51.136;14.942;2023-02-28T00:00:21;2.00;99.90
37446;DHT22;23307;51.136;14.942;2023-02-28T00:02:47;2.00;99.90
37446;DHT22;23307;51.136;14.942;2023-02-28T00:05:15;2.00;99.90
37446;DHT22;23307;51.136;14.942;2023-02-28T00:07:41;2.00;99.90
37446;DHT22;23307;51.136;14.942;2023-02-28T00:10:11;2.00;99.90
37446;DHT22;23307;51.136;14.942;2023-02-28T00:12:38;2.00;99.90
37446;DHT22;23307;51.136;14.942;2023-02-28T00:15:09;2.00;99.90
37446;DHT22;23307;51.136;14.942;2023-02-28T00:17:35;2.00;99.90
37446;DHT22;23307;51.136;14.942;2023-02-28T00:20:01;2.00;99.90
37446;DHT22;23307;51.136;14.942;2023-02-28T00:22:38;2.00;99.90
37446;DHT22;23307;51.136;14.942;2023-02-28T00:25:04;2.00;99.90
37446;DHT22;23307;51.136;14.942;2023-02-28T00:27:30;2.00;99.90
37446;DHT22;23307;51.136;14.942;2023-02-28T00:29:55;2.00;99.90
37446;DHT22;23307;51.136;14.942;2023-02-28T00:32:21;2.00;99.90
37446;DHT22;23307;51.136;14.942;2023-02-28T00:34:46;2.00;99.90
37446;DHT22;23307;51.136;14.942;2023-02-28T00:37:12;2.00;99.90
37446;DHT22;23307;51.136;14.942;2023-02-28T00:39:38;2.00;99.90
37446;DHT22;23307;51.136;14.942;2023-02-28T00:42:05;2.00;99.90
37446;DHT22;23307;51.136;14.942;2023-02-28T00:44:31;2.00;99.90
37446;DHT22;23307;51.136;14.942;2023-02-28T00:46:57;2.00;99.90
37446;DHT22;23307;51.136;14.942;2023-02-28T00:49:23;2.00;99.90
37446;DHT22;23307;51.136;14.942;2023-02-28T00:51:49;2.00;99.90
37446;DHT22;23307;51.136;14.942;2023-02-28T00:54:15;2.00;99.90
37446;DHT22;23307;51.136;14.942;2023-02-28T00:56:40;2.00;99.90
37446;DHT22;23307;51.136;14.942;2023-02-28T00:59:06;1.90;99.90
37446;DHT22;23307;51.136;14.942;2023-02-28T01:01:32;1.90;99.90
37446;DHT22;23307;51.136;14.942;2023-02-28T01:03:57;1.90;99.90
37446;DHT22;23307;51.136;14.942;2023-02-28T01:06:23;1.90;99.90
37446;DHT22;23307;51.136;14.942;2023-02-28T01:08:49;1.90;99.90
37446;DHT22;23307;51.136;14.942;2023-02-28T01:11:16;1.90;99.90
37446;DHT22;23307;51.136;14.942;2023-02-28T01:13:42;1.90;99.90
37446;DHT22;23307;51.136;14.942;2023-02-28T01:16:08;1.90;99.90
37446;DHT22;23307;51.136;14.942;2023-02-28T01:18:33;1.90;99.90
37446;DHT22;23307;51.136;14.942;2023-02-28T01:21:05;1.90;99.90
37446;DHT22;23307;51.136;14.942;2023-02-28T01:23:31;1.80;99.90
37446;DHT22;23307;51.136;14.942;2023-02-28T01:25:57;1.80;99.90
37446;DHT22;23307;51.136;14.942;2023-02-28T01:28:22;1.80;99.90
37446;DHT22;23307;51.136;14.942;2023-02-28T01:30:51;1.80;99.90
37446;DHT22;23307;51.136;14.942;2023-02-28T01:33:16;1.80;99.90
37446;DHT22;23307;51.136;14.942;2023-02-28T01:35:42;1.80;99.90
37446;DHT22;23307;51.136;14.942;2023-02-28T01:38:07;1.80;99.90
37446;DHT22;23307;51.136;14.942;2023-02-28T01:40:33;1.80;99.90
37446;DHT22;23307;51.136;14.942;2023-02-28T01:42:58;1.80;99.90
37446;DHT22;23307;51.136;14.942;2023-02-28T01:45:27;1.80;99.90
37446;DHT22;23307;51.136;14.942;2023-02-28T01:48:06;1.80;99.90
37446;DHT22;23307;51.136;14.942;2023-02-28T01:50:38;1.70;99.90
37446;DHT22;23307;51.136;14.942;2023-02-28T01:53:07;1.70;99.90
37446;DHT22;23307;51.136;14.942;2023-02-28T01:55:35;1.80;99.90
37446;DHT22;23307;51.136;14.942;2023-02-28T01:58:04;1.80;99.90
37446;DHT22;23307;51.136;14.942;2023-02-28T02:00:32;1.80;99.90
37446;DHT22;23307;51.136;14.942;2023-02-28T02:03:07;1.80;99.90
37446;DHT22;23307;51.136;14.942;2023-02-28T02:05:37;1.80;99.90
37446;DHT22;23307;51.136;14.942;2023-02-28T02:08:25;1.80;99.90
37446;DHT22;23307;51.136;14.942;2023-02-28T02:23:08;1.60;99.90
37446;DHT22;23307;51.136;14.942;2023-02-28T02:25:44;1.60;99.90
37446;DHT22;23307;51.136;14.942;2023-02-28T02:28:30;1.60;99.90
37446;DHT22;23307;51.136;14.942;2023-02-28T02:31:26;1.70;99.90
37446;DHT22;23307;51.136;14.942;2023-02-28T02:35:03;1.70;99.90
37446;DHT22;23307;51.136;14.942;2023-02-28T02:37:33;1.70;99.90
37446;DHT22;23307;51.136;14.942;2023-02-28T02:40:19;1.70;99.90
37446;DHT22;23307;51.136;14.942;2023-02-28T02:45:46;1.60;99.90
37446;DHT22;23307;51.136;14.942;2023-02-28T02:48:16;1.60;99.90
37446;DHT22;23307;51.136;14.942;2023-02-28T02:50:47;1.60;99.90
37446;DHT22;23307;51.136;14.942;2023-02-28T02:53:17;1.60;99.90
37446;DHT22;23307;51.136;14.942;2023-02-28T02:55:45;1.60;99.90
37446;DHT22;23307;51.136;14.942;2023-02-28T02:58:15;1.60;99.90
37446;DHT22;23307;51.136;14.942;2023-02-28T03:00:46;1.70;99.90
37446;DHT22;23307;51.136;14.942;2023-02-28T03:03:13;1.70;99.90
37446;DHT22;23307;51.136;14.942;2023-02-28T03:05:45;1.70;99.90
37446;DHT22;23307;51.136;14.942;2023-02-28T03:08:11;1.60;99.90
37446;DHT22;23307;51.136;14.942;2023-02-28T03:10:40;1.60;99.90
37446;DHT22;23307;51.136;14.942;2023-02-28T03:16:02;1.60;99.90
37446;DHT22;23307;51.136;14.942;2023-02-28T03:18:46;1.60;99.90
37446;DHT22;23307;51.136;14.942;2023-02-28T03:23:52;1.60;99.90
37446;DHT22;23307;51.136;14.942;2023-02-28T03:26:23;1.60;99.90
37446;DHT22;23307;51.136;14.942;2023-02-28T03:31:32;1.60;99.90
37446;DHT22;23307;51.136;14.942;2023-02-28T03:34:06;1.70;99.90
37446;DHT22;23307;51.136;14.942;2023-02-28T03:36:38;1.70;99.90
37446;DHT22;23307;51.136;14.942;2023-02-28T03:39:16;1.70;99.90
37446;DHT22;23307;51.136;14.942;2023-02-28T03:41:48;1.70;99.90
37446;DHT22;23307;51.136;14.942;2023-02-28T03:44:24;1.70;99.90
37446;DHT22;23307;51.136;14.942;2023-02-28T03:47:16;1.70;99.90
37446;DHT22;23307;51.136;14.942;2023-02-28T03:52:33;1.70;99.90
37446;DHT22;23307;51.136;14.942;2023-02-28T03:55:03;1.70;99.90
37446;DHT22;23307;51.136;14.942;2023-02-28T03:58:04;1.70;99.90
37446;DHT22;23307;51.136;14.942;2023-02-28T04:00:49;1.70;99.90
37446;DHT22;23307;51.136;14.942;2023-02-28T04:03:16;1.70;99.90
37446;DHT22;23307;51.136;14.942;2023-02-28T04:05:51;1.70;99.90
37446;DHT22;23307;51.136;14.942;2023-02-28T04:08:17;1.70;99.90
37446;DHT22;23307;51.136;14.942;2023-02-28T04:10:45;1.70;99.90
37446;DHT22;23307;51.136;14.942;2023-02-28T04:13:13;1.70;99.90
37446;DHT22;23307;51.136;14.942;2023-02-28T04:15:38;1.60;99.90
37446;DHT22;23307;51.136;14.942;2023-02-28T04:18:04;1.60;99.90
37446;DHT22;23307;51.136;14.942;2023-02-28T04:20:29;1.60;99.90
37446;DHT22;23307;51.136;14.942;2023-02-28T04:22:55;1.50;99.90
37446;DHT22;23307;51.136;14.942;2023-02-28T04:25:20;1.50;99.90
37446;DHT22;23307;51.136;14.942;2023-02-28T04:27:46;1.50;99.90
37446;DHT22;23307;51.136;14.942;2023-02-28T04:30:11;1.50;99.90
37446;DHT22;23307;51.136;14.942;2023-02-28T04:32:37;1.50;99.90
37446;DHT22;23307;51.136;14.942;2023-02-28T04:35:03;1.60;99.90
37446;DHT22;23307;51.136;14.942;2023-02-28T04:37:28;1.60;99.90
37446;DHT22;23307;51.136;14.942;2023-02-28T04:39:54;1.50;99.90
37446;DHT22;23307;51.136;14.942;2023-02-28T04:42:20;1.50;99.90
37446;DHT22;23307;51.136;14.942;2023-02-28T04:44:45;1.60;99.90
37446;DHT22;23307;51.136;14.942;2023-02-28T04:47:11;1.60;99.90
37446;DHT22;23307;51.136;14.942;2023-02-28T04:49:36;1.60;99.90
37446;DHT22;23307;51.136;14.942;2023-02-28T04:52:02;1.60;99.90
37446;DHT22;23307;51.136;14.942;2023-02-28T04:54:27;1.60;99.90
37446;DHT22;23307;51.136;14.942;2023-02-28T04:56:53;1.60;99.90
37446;DHT22;23307;51.136;14.942;2023-02-28T04:59:20;1.60;99.90
37446;DHT22;23307;51.136;14.942;2023-02-28T05:01:47;1.60;99.90
37446;DHT22;23307;51.136;14.942;2023-02-28T05:04:13;1.60;99.90
37446;DHT22;23307;51.136;14.942;2023-02-28T05:06:39;1.60;99.90
37446;DHT22;23307;51.136;14.942;2023-02-28T05:09:04;1.60;99.90
37446;DHT22;23307;51.136;14.942;2023-02-28T05:11:32;1.40;99.90
37446;DHT22;23307;51.136;14.942;2023-02-28T05:14:06;1.40;99.90
37446;DHT22;23307;51.136;14.942;2023-02-28T05:16:32;1.40;99.90
37446;DHT22;23307;51.136;14.942;2023-02-28T05:18:58;1.40;99.90
37446;DHT22;23307;51.136;14.942;2023-02-28T05:23:59;1.30;99.90
37446;DHT22;23307;51.136;14.942;2023-02-28T05:26:26;1.40;99.90
37446;DHT22;23307;51.136;14.942;2023-02-28T05:28:52;1.30;99.90
37446;DHT22;23307;51.136;14.942;2023-02-28T05:31:17;1.20;99.90
37446;DHT22;23307;51.136;14.942;2023-02-28T05:33:43;1.20;99.90
37446;DHT22;23307;51.136;14.942;2023-02-28T05:36:08;1.20;99.90
37446;DHT22;23307;51.136;14.942;2023-02-28T05:38:34;1.20;99.90
37446;DHT22;23307;51.136;14.942;2023-02-28T05:40:59;1.20;99.90
37446;DHT22;23307;51.136;14.942;2023-02-28T05:43:25;1.20;99.90
37446;DHT22;23307;51.136;14.942;2023-02-28T05:45:50;1.20;99.90
37446;DHT22;23307;51.136;14.942;2023-02-28T05:48:16;1.30;99.90
37446;DHT22;23307;51.136;14.942;2023-02-28T05:50:43;1.20;99.90
37446;DHT22;23307;51.136;14.942;2023-02-28T05:53:10;1.20;99.90
37446;DHT22;23307;51.136;14.942;2023-02-28T05:55:35;1.20;99.90
37446;DHT22;23307;51.136;14.942;2023-02-28T05:58:02;1.20;99.90
37446;DHT22;23307;51.136;14.942;2023-02-28T06:00:28;1.20;99.90
37446;DHT22;23307;51.136;14.942;2023-02-28T06:02:53;1.20;99.90
37446;DHT22;23307;51.136;14.942;2023-02-28T06:05:22;1.20;99.90
37446;DHT22;23307;51.136;14.942;2023-02-28T06:07:47;1.30;99.90
37446;DHT22;23307;51.136;14.942;2023-02-28T06:10:13;1.30;99.90
37446;DHT22;23307;51.136;14.942;2023-02-28T06:12:39;1.30;99.90
37446;DHT22;23307;51.136;14.942;2023-02-28T06:15:07;1.30;99.90
37446;DHT22;23307;51.136;14.942;2023-02-28T06:17:32;1.20;99.90
37446;DHT22;23307;51.136;14.942;2023-02-28T06:19:58;1.30;99.90
37446;DHT22;23307;51.136;14.942;2023-02-28T06:22:23;1.30;99.90
37446;DHT22;23307;51.136;14.942;2023-02-28T06:24:49;1.30;99.90
37446;DHT22;23307;51.136;14.942;2023-02-28T06:27:14;1.30;99.90
37446;DHT22;23307;51.136;14.942;2023-02-28T06:29:40;1.30;99.90
37446;DHT22;23307;51.136;14.942;2023-02-28T06:32:06;1.40;99.90
37446;DHT22;23307;51.136;14.942;2023-02-28T06:34:31;1.40;99.90
37446;DHT22;23307;51.136;14.942;2023-02-28T06:36:59;1.40;99.90
37446;DHT22;23307;51.136;14.942;2023-02-28T06:39:30;1.50;99.90
37446;DHT22;23307;51.136;14.942;2023-02-28T06:41:56;1.50;99.90
37446;DHT22;23307;51.136;14.942;2023-02-28T06:44:22;1.50;99.90
37446;DHT22;23307;51.136;14.942;2023-02-28T06:46:48;1.60;99.90
37446;DHT22;23307;51.136;14.942;2023-02-28T06:49:14;1.60;99.90
37446;DHT22;23307;51.136;14.942;2023-02-28T06:51:40;1.60;99.90
37446;DHT22;23307;51.136;14.942;2023-02-28T06:54:07;1.70;99.90
37446;DHT22;23307;51.136;14.942;2023-02-28T06:56:36;1.70;99.90
37446;DHT22;23307;51.136;14.942;2023-02-28T06:59:01;1.70;99.90
37446;DHT22;23307;51.136;14.942;2023-02-28T07:01:27;1.80;99.90
37446;DHT22;23307;51.136;14.942;2023-02-28T07:03:54;1.80;99.90
37446;DHT22;23307;51.136;14.942;2023-02-28T07:06:23;1.80;99.90
37446;DHT22;23307;51.136;14.942;2023-02-28T07:08:50;1.80;99.90
37446;DHT22;23307;51.136;14.942;2023-02-28T07:11:16;1.80;99.90
37446;DHT22;23307;51.136;14.942;2023-02-28T07:13:41;1.80;99.90
37446;DHT22;23307;51.136;14.942;2023-02-28T07:16:09;1.90;99.90
37446;DHT22;23307;51.136;14.942;2023-02-28T07:18:37;1.90;99.90
37446;DHT22;23307;51.136;14.942;2023-02-28T07:21:03;1.90;99.90
37446;DHT22;23307;51.136;14.942;2023-02-28T07:23:29;2.00;99.90
37446;DHT22;23307;51.136;14.942;2023-02-28T07:25:54;2.00;99.90
37446;DHT22;23307;51.136;14.942;2023-02-28T07:28:20;2.00;99.90
37446;DHT22;23307;51.136;14.942;2023-02-28T07:30:45;2.10;99.90
37446;DHT22;23307;51.136;14.942;2023-02-28T07:33:11;2.20;99.90
37446;DHT22;23307;51.136;14.942;2023-02-28T07:35:36;2.20;99.90
37446;DHT22;23307;51.136;14.942;2023-02-28T07:38:02;2.20;99.90
37446;DHT22;23307;51.136;14.942;2023-02-28T07:40:28;2.30;99.90
37446;DHT22;23307;51.136;14.942;2023-02-28T07:42:54;2.30;99.90
37446;DHT22;23307;51.136;14.942;2023-02-28T07:45:20;2.20;99.90
37446;DHT22;23307;51.136;14.942;2023-02-28T07:47:46;2.30;99.90
37446;DHT22;23307;51.136;14.942;2023-02-28T07:50:14;2.30;99.90
37446;DHT22;23307;51.136;14.942;2023-02-28T07:52:40;2.40;99.90
37446;DHT22;23307;51.136;14.942;2023-02-28T07:55:07;2.50;99.90
37446;DHT22;23307;51.136;14.942;2023-02-28T07:57:33;2.60;99.90
37446;DHT22;23307;51.136;14.942;2023-02-28T07:59:59;2.60;99.90
37446;DHT22;23307;51.136;14.942;2023-02-28T08:02:24;2.70;99.90
37446;DHT22;23307;51.136;14.942;2023-02-28T08:04:50;2.80;99.90
37446;DHT22;23307;51.136;14.942;2023-02-28T08:07:17;2.80;99.90
37446;DHT22;23307;51.136;14.942;2023-02-28T08:09:43;2.90;99.90
37446;DHT22;23307;51.136;14.942;2023-02-28T08:12:10;2.90;99.90
37446;DHT22;23307;51.136;14.942;2023-02-28T08:14:36;2.80;99.90
37446;DHT22;23307;51.136;14.942;2023-02-28T08:17:02;2.90;99.90
37446;DHT22;23307;51.136;14.942;2023-02-28T08:19:28;2.90;99.90
37446;DHT22;23307;51.136;14.942;2023-02-28T08:21:54;2.90;99.90
37446;DHT22;23307;51.136;14.942;2023-02-28T08:24:20;3.00;99.90
37446;DHT22;23307;51.136;14.942;2023-02-28T08:26:45;3.10;99.90
37446;DHT22;23307;51.136;14.942;2023-02-28T08:29:11;3.10;99.90
37446;DHT22;23307;51.136;14.942;2023-02-28T08:31:36;3.20;99.90
37446;DHT22;23307;51.136;14.942;2023-02-28T08:34:09;3.20;99.90
37446;DHT22;23307;51.136;14.942;2023-02-28T08:36:36;3.30;99.90
37446;DHT22;23307;51.136;14.942;2023-02-28T08:39:02;3.30;99.90
37446;DHT22;23307;51.136;14.942;2023-02-28T08:41:28;3.30;99.90
37446;DHT22;23307;51.136;14.942;2023-02-28T08:43:53;3.20;99.90
37446;DHT22;23307;51.136;14.942;2023-02-28T08:46:19;3.20;99.90
37446;DHT22;23307;51.136;14.942;2023-02-28T08:48:45;3.30;99.90
37446;DHT22;23307;51.136;14.942;2023-02-28T08:51:16;3.20;99.90
37446;DHT22;23307;51.136;14.942;2023-02-28T08:53:44;3.10;99.90
37446;DHT22;23307;51.136;14.942;2023-02-28T08:56:12;3.00;99.90
37446;DHT22;23307;51.136;14.942;2023-02-28T08:58:38;3.10;99.90
37446;DHT22;23307;51.136;14.942;2023-02-28T09:01:12;3.20;99.90
37446;DHT22;23307;51.136;14.942;2023-02-28T09:03:38;3.30;99.90
37446;DHT22;23307;51.136;14.942;2023-02-28T09:06:04;3.30;99.90
37446;DHT22;23307;51.136;14.942;2023-02-28T09:08:30;3.20;99.90
37446;DHT22;23307;51.136;14.942;2023-02-28T09:10:57;3.20;99.90
37446;DHT22;23307;51.136;14.942;2023-02-28T09:13:24;3.20;99.90
37446;DHT22;23307;51.136;14.942;2023-02-28T09:15:50;3.10;99.90
37446;DHT22;23307;51.136;14.942;2023-02-28T09:18:16;3.20;99.90
37446;DHT22;23307;51.136;14.942;2023-02-28T09:20:42;3.30;99.90
37446;DHT22;23307;51.136;14.942;2023-02-28T09:23:09;3.30;99.90
37446;DHT22;23307;51.136;14.942;2023-02-28T09:25:35;3.40;99.90
37446;DHT22;23307;51.136;14.942;2023-02-28T09:28:02;3.40;99.90
37446;DHT22;23307;51.136;14.942;2023-02-28T09:30:28;3.30;99.90
37446;DHT22;23307;51.136;14.942;2023-02-28T09:32:54;3.30;99.90
37446;DHT22;23307;51.136;14.942;2023-02-28T09:35:21;3.40;99.90
37446;DHT22;23307;51.136;14.942;2023-02-28T09:37:48;3.50;99.90
37446;DHT22;23307;51.136;14.942;2023-02-28T09:40:14;3.40;99.90
37446;DHT22;23307;51.136;14.942;2023-02-28T09:42:46;3.40;99.90
37446;DHT22;23307;51.136;14.942;2023-02-28T09:45:22;3.40;99.90
37446;DHT22;23307;51.136;14.942;2023-02-28T09:47:50;3.30;99.90
37446;DHT22;23307;51.136;14.942;2023-02-28T09:50:22;3.20;99.90
37446;DHT22;23307;51.136;14.942;2023-02-28T09:52:54;3.30;99.90
37446;DHT22;23307;51.136;14.942;2023-02-28T09:55:37;3.40;99.90
37446;DHT22;23307;51.136;14.942;2023-02-28T09:58:05;3.50;99.90
37446;DHT22;23307;51.136;14.942;2023-02-28T10:00:37;3.60;99.90
37446;DHT22;23307;51.136;14.942;2023-02-28T10:03:21;3.60;99.90
37446;DHT22;23307;51.136;14.942;2023-02-28T10:06:00;3.60;99.90
37446;DHT22;23307;51.136;14.942;2023-02-28T10:11:16;3.40;99.90
37446;DHT22;23307;51.136;14.942;2023-02-28T10:14:01;3.30;99.90
37446;DHT22;23307;51.136;14.942;2023-02-28T10:16:54;3.20;99.90
37446;DHT22;23307;51.136;14.942;2023-02-28T10:24:50;3.00;99.90
37446;DHT22;23307;51.136;14.942;2023-02-28T10:27:28;3.10;99.90
37446;DHT22;23307;51.136;14.942;2023-02-28T10:29:56;3.30;99.90
37446;DHT22;23307;51.136;14.942;2023-02-28T10:32:25;3.40;99.90
37446;DHT22;23307;51.136;14.942;2023-02-28T10:35:16;3.40;99.90
37446;DHT22;23307;51.136;14.942;2023-02-28T10:37:44;3.40;99.90
37446;DHT22;23307;51.136;14.942;2023-02-28T10:45:39;3.60;99.90
37446;DHT22;23307;51.136;14.942;2023-02-28T10:50:52;4.20;99.90
37446;DHT22;23307;51.136;14.942;2023-02-28T11:03:56;5.10;99.90
37446;DHT22;23307;51.136;14.942;2023-02-28T11:06:31;5.30;99.90
37446;DHT22;23307;51.136;14.942;2023-02-28T11:09:12;5.50;99.90
37446;DHT22;23307;51.136;14.942;2023-02-28T11:11:46;5.70;99.90
37446;DHT22;23307;51.136;14.942;2023-02-28T11:14:24;5.80;99.10
37446;DHT22;23307;51.136;14.942;2023-02-28T11:16:51;5.80;98.70
37446;DHT22;23307;51.136;14.942;2023-02-28T11:19:21;5.90;99.00
37446;DHT22;23307;51.136;14.942;2023-02-28T11:21:56;6.00;98.90
37446;DHT22;23307;51.136;14.942;2023-02-28T11:24:31;6.10;97.80
37446;DHT22;23307;51.136;14.942;2023-02-28T11:26:58;6.00;96.30
37446;DHT22;23307;51.136;14.942;2023-02-28T11:29:26;5.90;96.10
37446;DHT22;23307;51.136;14.942;2023-02-28T11:32:12;6.00;97.60
37446;DHT22;23307;51.136;14.942;2023-02-28T11:34:39;6.20;97.60
37446;DHT22;23307;51.136;14.942;2023-02-28T11:37:18;6.50;97.70
37446;DHT22;23307;51.136;14.942;2023-02-28T11:39:44;6.50;96.80
37446;DHT22;23307;51.136;14.942;2023-02-28T11:42:17;6.60;96.80
37446;DHT22;23307;51.136;14.942;2023-02-28T11:47:56;6.80;96.50
37446;DHT22;23307;51.136;14.942;2023-02-28T11:53:19;7.00;95.40
37446;DHT22;23307;51.136;14.942;2023-02-28T11:55:58;7.00;95.80
37446;DHT22;23307;51.136;14.942;2023-02-28T11:59:08;7.10;95.70
37446;DHT22;23307;51.136;14.942;2023-02-28T12:07:43;7.20;94.80
37446;DHT22;23307;51.136;14.942;2023-02-28T12:10:26;7.30;94.40
37446;DHT22;23307;51.136;14.942;2023-02-28T12:16:15;7.30;93.10
37446;DHT22;23307;51.136;14.942;2023-02-28T12:19:05;7.40;94.10
37446;DHT22;23307;51.136;14.942;2023-02-28T12:22:00;7.60;93.40
37446;DHT22;23307;51.136;14.942;2023-02-28T12:24:39;7.60;92.40
37446;DHT22;23307;51.136;14.942;2023-02-28T12:27:12;7.50;92.10
37446;DHT22;23307;51.136;14.942;2023-02-28T12:29:48;7.50;92.00
37446;DHT22;23307;51.136;14.942;2023-02-28T12:32:31;7.40;91.60
37446;DHT22;23307;51.136;14.942;2023-02-28T12:35:13;7.20;91.50
37446;DHT22;23307;51.136;14.942;2023-02-28T12:38:04;7.20;91.50
37446;DHT22;23307;51.136;14.942;2023-02-28T12:40:47;7.50;92.30
37446;DHT22;23307;51.136;14.942;2023-02-28T12:43:16;7.80;92.70
37446;DHT22;23307;51.136;14.942;2023-02-28T12:46:07;8.00;92.50
37446;DHT22;23307;51.136;14.942;2023-02-28T12:48:43;8.20;91.10
37446;DHT22;23307;51.136;14.942;2023-02-28T12:51:10;8.30;91.40
37446;DHT22;23307;51.136;14.942;2023-02-28T12:56:35;8.70;90.80
37446;DHT22;23307;51.136;14.942;2023-02-28T12:59:15;8.90;91.40
37446;DHT22;23307;51.136;14.942;2023-02-28T13:01:55;9.10;91.30
37446;DHT22;23307;51.136;14.942;2023-02-28T13:10:13;8.90;88.10
37446;DHT22;23307;51.136;14.942;2023-02-28T13:12:49;8.90;88.50
37446;DHT22;23307;51.136;14.942;2023-02-28T13:15:27;8.90;87.70
37446;DHT22;23307;51.136;14.942;2023-02-28T13:17:58;9.00;88.10
37446;DHT22;23307;51.136;14.942;2023-02-28T13:20:27;9.20;88.40
37446;DHT22;23307;51.136;14.942;2023-02-28T13:22:55;9.20;86.30
37446;DHT22;23307;51.136;14.942;2023-02-28T13:27:52;9.00;86.10
37446;DHT22;23307;51.136;14.942;2023-02-28T13:34:04;9.00;84.30
37446;DHT22;23307;51.136;14.942;2023-02-28T13:36:30;8.80;82.80
37446;DHT22;23307;51.136;14.942;2023-02-28T13:39:45;8.90;83.80
37446;DHT22;23307;51.136;14.942;2023-02-28T13:47:40;9.30;82.60
37446;DHT22;23307;51.136;14.942;2023-02-28T13:56:16;9.90;79.80
37446;DHT22;23307;51.136;14.942;2023-02-28T14:01:14;10.00;77.60
37446;DHT22;23307;51.136;14.942;2023-02-28T14:04:08;10.00;76.60
37446;DHT22;23307;51.136;14.942;2023-02-28T14:06:38;9.80;77.20
37446;DHT22;23307;51.136;14.942;2023-02-28T14:09:33;9.50;77.00
37446;DHT22;23307;51.136;14.942;2023-02-28T14:15:25;9.80;80.80
37446;DHT22;23307;51.136;14.942;2023-02-28T14:17:55;9.90;78.10
37446;DHT22;23307;51.136;14.942;2023-02-28T14:20:22;9.80;77.40
37446;DHT22;23307;51.136;14.942;2023-02-28T14:23:06;10.00;77.10
37446;DHT22;23307;51.136;14.942;2023-02-28T14:31:23;10.00;77.70
37446;DHT22;23307;51.136;14.942;2023-02-28T14:36:48;10.40;77.70
37446;DHT22;23307;51.136;14.942;2023-02-28T14:39:18;10.40;76.10
37446;DHT22;23307;51.136;14.942;2023-02-28T14:41:46;10.00;73.90
37446;DHT22;23307;51.136;14.942;2023-02-28T14:44:16;9.60;75.50
37446;DHT22;23307;51.136;14.942;2023-02-28T14:46:45;9.50;77.40
37446;DHT22;23307;51.136;14.942;2023-02-28T14:49:26;9.50;78.40
37446;DHT22;23307;51.136;14.942;2023-02-28T14:52:15;9.70;79.90
37446;DHT22;23307;51.136;14.942;2023-02-28T14:54:43;9.90;78.90
37446;DHT22;23307;51.136;14.942;2023-02-28T14:57:27;9.70;76.90
37446;DHT22;23307;51.136;14.942;2023-02-28T15:00:12;9.50;77.70
37446;DHT22;23307;51.136;14.942;2023-02-28T15:02:39;9.50;76.90
37446;DHT22;23307;51.136;14.942;2023-02-28T15:07:44;9.60;78.80
37446;DHT22;23307;51.136;14.942;2023-02-28T15:10:24;9.80;78.50
37446;DHT22;23307;51.136;14.942;2023-02-28T15:12:57;9.60;76.50
37446;DHT22;23307;51.136;14.942;2023-02-28T15:15:53;9.40;75.90
37446;DHT22;23307;51.136;14.942;2023-02-28T15:18:42;8.90;74.70
37446;DHT22;23307;51.136;14.942;2023-02-28T15:21:13;8.50;75.70
37446;DHT22;23307;51.136;14.942;2023-02-28T15:23:41;8.20;76.50
37446;DHT22;23307;51.136;14.942;2023-02-28T15:26:13;7.80;76.70
37446;DHT22;23307;51.136;14.942;2023-02-28T15:28:40;7.50;78.00
37446;DHT22;23307;51.136;14.942;2023-02-28T15:31:20;7.30;79.40
37446;DHT22;23307;51.136;14.942;2023-02-28T15:34:02;7.30;80.90
37446;DHT22;23307;51.136;14.942;2023-02-28T15:36:33;7.30;81.50
37446;DHT22;23307;51.136;14.942;2023-02-28T15:39:16;7.30;82.30
37446;DHT22;23307;51.136;14.942;2023-02-28T15:41:43;7.20;81.20
37446;DHT22;23307;51.136;14.942;2023-02-28T15:44:18;7.00;82.20
37446;DHT22;23307;51.136;14.942;2023-02-28T15:46:57;7.00;82.60
37446;DHT22;23307;51.136;14.942;2023-02-28T15:49:24;6.90;81.90
37446;DHT22;23307;51.136;14.942;2023-02-28T15:51:51;6.70;82.70
37446;DHT22;23307;51.136;14.942;2023-02-28T15:54:24;6.50;83.30
37446;DHT22;23307;51.136;14.942;2023-02-28T15:56:54;6.20;84.10
37446;DHT22;23307;51.136;14.942;2023-02-28T15:59:23;6.10;84.90
37446;DHT22;23307;51.136;14.942;2023-02-28T16:02:27;6.00;84.70
37446;DHT22;23307;51.136;14.942;2023-02-28T16:07:38;5.90;85.30
37446;DHT22;23307;51.136;14.942;2023-02-28T16:10:04;5.80;86.10
37446;DHT22;23307;51.136;14.942;2023-02-28T16:12:32;5.70;87.20
37446;DHT22;23307;51.136;14.942;2023-02-28T16:15:02;5.60;87.30
37446;DHT22;23307;51.136;14.942;2023-02-28T16:17:35;5.50;87.80
37446;DHT22;23307;51.136;14.942;2023-02-28T16:20:12;5.40;88.70
37446;DHT22;23307;51.136;14.942;2023-02-28T16:22:38;5.40;88.80
37446;DHT22;23307;51.136;14.942;2023-02-28T16:25:04;5.40;89.00
37446;DHT22;23307;51.136;14.942;2023-02-28T16:27:35;5.30;89.80
37446;DHT22;23307;51.136;14.942;2023-02-28T16:30:03;5.20;90.00
37446;DHT22;23307;51.136;14.942;2023-02-28T16:32:29;5.20;90.20
37446;DHT22;23307;51.136;14.942;2023-02-28T16:34:56;5.10;90.40
37446;DHT22;23307;51.136;14.942;2023-02-28T16:37:21;5.10;90.70
37446;DHT22;23307;51.136;14.942;2023-02-28T16:39:47;5.00;90.70
37446;DHT22;23307;51.136;14.942;2023-02-28T16:42:22;5.00;91.00
37446;DHT22;23307;51.136;14.942;2023-02-28T16:44:48;5.00;91.00
37446;DHT22;23307;51.136;14.942;2023-02-28T16:47:14;4.90;91.00
37446;DHT22;23307;51.136;14.942;2023-02-28T16:49:40;4.90;91.30
37446;DHT22;23307;51.136;14.942;2023-02-28T16:52:11;4.80;91.60
37446;DHT22;23307;51.136;14.942;2023-02-28T16:54:38;4.80;91.70
37446;DHT22;23307;51.136;14.942;2023-02-28T16:57:05;4.70;91.80
37446;DHT22;23307;51.136;14.942;2023-02-28T16:59:32;4.70;91.90
37446;DHT22;23307;51.136;14.942;2023-02-28T17:01:58;4.60;92.20
37446;DHT22;23307;51.136;14.942;2023-02-28T17:04:26;4.60;92.80
37446;DHT22;23307;51.136;14.942;2023-02-28T17:06:52;4.50;92.70
37446;DHT22;23307;51.136;14.942;2023-02-28T17:09:22;4.50;93.00
37446;DHT22;23307;51.136;14.942;2023-02-28T17:11:48;4.40;93.30
37446;DHT22;23307;51.136;14.942;2023-02-28T17:14:14;4.40;93.30
37446;DHT22;23307;51.136;14.942;2023-02-28T17:16:41;4.40;93.40
37446;DHT22;23307;51.136;14.942;2023-02-28T17:19:13;4.30;93.60
37446;DHT22;23307;51.136;14.942;2023-02-28T17:21:40;4.30;93.70
37446;DHT22;23307;51.136;14.942;2023-02-28T17:24:07;4.30;93.80
37446;DHT22;23307;51.136;14.942;2023-02-28T17:26:33;4.20;94.20
37446;DHT22;23307;51.136;14.942;2023-02-28T17:28:58;4.20;94.80
37446;DHT22;23307;51.136;14.942;2023-02-28T17:31:25;4.20;95.30
37446;DHT22;23307;51.136;14.942;2023-02-28T17:33:52;4.30;95.70
37446;DHT22;23307;51.136;14.942;2023-02-28T17:36:25;4.30;95.80
37446;DHT22;23307;51.136;14.942;2023-02-28T17:38:52;4.30;96.00
37446;DHT22;23307;51.136;14.942;2023-02-28T17:41:18;4.20;96.80
37446;DHT22;23307;51.136;14.942;2023-02-28T17:43:44;4.20;96.70
37446;DHT22;23307;51.136;14.942;2023-02-28T17:46:18;4.20;96.90